Time,TemperatureF,DewpointF,PressureIn,WindDirection,WindDirectionDegrees,WindSpeedMPH,WindSpeedGustMPH,Humidity,HourlyPrecipIn,Conditions,Clouds,dailyrainin,SoftwareType,DateUTC
2013-10-13 00:04:00,69.6,69.3,30.03,NE,45,2.2,-999.0,99,-99.99,,,0.00,Acu-Link.com,2013-10-13 05:04:00,
2013-10-13 00:19:00,69.6,69.3,30.03,East,90,2.2,-999.0,99,-99.99,,,0.00,Acu-Link.com,2013-10-13 05:19:00,
2013-10-13 00:34:00,69.6,69.3,30.02,ESE,112,1.6,-999.0,99,-99.99,,,0.00,Acu-Link.com,2013-10-13 05:34:00,
2013-10-13 00:50:00,69.6,69.3,30.02,East,90,1.6,-999.0,99,-99.99,,,0.00,Acu-Link.com,2013-10-13 05:50:00,
2013-10-13 01:05:00,69.4,69.1,30.01,NW,315,0.0,-999.0,99,-99.99,,,0.00,Acu-Link.com,2013-10-13 06:05:00,
2013-10-13 01:20:00,69.3,69.0,29.99,South,180,0.0,-999.0,99,-99.99,,,0.00,Acu-Link.com,2013-10-13 06:20:00,
2013-10-13 01:35:00,68.9,68.6,29.99,SSE,157,2.2,-999.0,99,-99.99,,,0.00,Acu-Link.com,2013-10-13 06:35:00,
2013-10-13 01:50:00,68.9,68.6,29.98,SSE,157,2.7,-999.0,99,-99.99,,,0.00,Acu-Link.com,2013-10-13 06:50:00,
2013-10-13 02:05:00,68.9,68.6,29.97,SW,225,3.1,-999.0,99,-99.99,,,0.00,Acu-Link.com,2013-10-13 07:05:00,
2013-10-13 02:21:00,68.9,68.6,29.97,SSW,202,3.8,-999.0,99,-99.99,,,0.00,Acu-Link.com,2013-10-13 07:21:00,
2013-10-13 02:36:00,68.9,68.6,29.97,North,0,1.6,-999.0,99,-99.99,,,0.00,Acu-Link.com,2013-10-13 07:36:00,
2013-10-13 02:52:00,68.9,68.6,29.97,South,180,0.0,-999.0,99,-99.99,,,0.00,Acu-Link.com,2013-10-13 07:52:00,
2013-10-13 03:07:00,68.5,68.2,29.97,West,270,0.0,-999.0,99,-99.99,,,0.00,Acu-Link.com,2013-10-13 08:07:00,
2013-10-13 03:23:00,68.5,68.2,29.97,NNE,22,1.6,-999.0,99,-99.99,,,0.00,Acu-Link.com,2013-10-13 08:23:00,
2013-10-13 03:38:00,68.4,68.1,29.97,NW,315,2.2,-999.0,99,-99.99,,,0.00,Acu-Link.com,2013-10-13 08:38:00,
2013-10-13 03:53:00,68.2,67.9,29.98,West,270,3.8,-999.0,99,-99.99,,,0.00,Acu-Link.com,2013-10-13 08:53:00,
2013-10-13 04:08:00,68.4,68.1,29.97,West,270,2.2,-999.0,99,-99.99,,,0.00,Acu-Link.com,2013-10-13 09:08:00,
2013-10-13 04:23:00,68.5,68.2,29.96,NNW,337,3.8,-999.0,99,-99.99,,,0.00,Acu-Link.com,2013-10-13 09:23:00,
2013-10-13 04:38:00,68.7,68.4,29.98,NNW,337,4.7,-999.0,99,-99.99,,,0.00,Acu-Link.com,2013-10-13 09:38:00,
2013-10-13 04:53:00,68.9,68.6,29.98,East,90,1.6,-999.0,99,-99.99,,,0.00,Acu-Link.com,2013-10-13 09:53:00,
2013-10-13 05:08:00,68.9,68.6,29.99,NNE,22,2.7,-999.0,99,-99.99,,,0.00,Acu-Link.com,2013-10-13 10:08:00,
2013-10-13 05:24:00,68.7,68.4,30.00,North,0,2.7,-999.0,99,-99.99,,,0.00,Acu-Link.com,2013-10-13 10:24:00,
2013-10-13 05:39:00,68.7,68.4,30.00,ENE,67,1.6,-999.0,99,-99.99,,,0.00,Acu-Link.com,2013-10-13 10:39:00,
2013-10-13 05:54:00,69.1,68.8,30.02,NW,315,1.6,-999.0,99,-99.99,,,0.00,Acu-Link.com,2013-10-13 10:54:00,
2013-10-13 06:09:00,69.3,69.0,30.02,North,0,2.7,-999.0,99,-99.99,,,0.00,Acu-Link.com,2013-10-13 11:09:00,
2013-10-13 06:25:00,69.3,69.0,30.03,NE,45,1.1,-999.0,99,-99.99,,,0.00,Acu-Link.com,2013-10-13 11:25:00,
2013-10-13 06:40:00,69.3,69.0,30.03,East,90,2.2,-999.0,99,-99.99,,,0.00,Acu-Link.com,2013-10-13 11:40:00,
2013-10-13 06:55:00,69.4,69.1,30.03,NNE,22,1.6,-999.0,99,-99.99,,,0.00,Acu-Link.com,2013-10-13 11:55:00,
2013-10-13 07:11:00,69.4,69.1,30.04,NNE,22,2.7,-999.0,99,-99.99,,,0.00,Acu-Link.com,2013-10-13 12:11:00,
2013-10-13 07:26:00,69.6,69.3,30.06,ESE,112,3.8,-999.0,99,-99.99,,,0.00,Acu-Link.com,2013-10-13 12:26:00,
2013-10-13 07:41:00,69.6,69.3,30.06,NE,45,6.7,-999.0,99,-99.99,,,0.00,Acu-Link.com,2013-10-13 12:41:00,
2013-10-13 07:56:00,70.2,69.9,30.07,ENE,67,2.2,-999.0,99,-99.99,,,0.00,Acu-Link.com,2013-10-13 12:56:00,
2013-10-13 08:11:00,70.3,70.0,30.08,ENE,67,3.8,-999.0,99,-99.99,,,0.00,Acu-Link.com,2013-10-13 13:11:00,
2013-10-13 08:27:00,70.3,70.0,30.09,West,270,3.1,-999.0,99,-99.99,,,0.00,Acu-Link.com,2013-10-13 13:27:00,
2013-10-13 08:42:00,71.4,71.1,30.10,ENE,67,2.7,-999.0,99,-99.99,,,0.00,Acu-Link.com,2013-10-13 13:42:00,
2013-10-13 08:57:00,74.5,72.3,30.11,NE,45,2.2,-999.0,93,-99.99,,,0.00,Acu-Link.com,2013-10-13 13:57:00,
2013-10-13 09:12:00,75.6,72.1,30.10,East,90,4.3,-999.0,89,-99.99,,,0.00,Acu-Link.com,2013-10-13 14:12:00,
2013-10-13 09:28:00,75.4,72.6,30.10,East,90,6.7,-999.0,91,-99.99,,,0.00,Acu-Link.com,2013-10-13 14:28:00,
2013-10-13 09:43:00,77.0,72.5,30.10,ENE,67,6.7,-999.0,86,-99.99,,,0.00,Acu-Link.com,2013-10-13 14:43:00,
2013-10-13 09:58:00,75.4,71.9,30.10,ESE,112,3.8,-999.0,89,-99.99,,,0.00,Acu-Link.com,2013-10-13 14:58:00,
2013-10-13 10:14:00,75.6,72.1,30.11,NE,45,2.7,-999.0,89,-99.99,,,0.00,Acu-Link.com,2013-10-13 15:14:00,
2013-10-13 10:29:00,77.5,72.7,30.11,NE,45,2.2,-999.0,85,-99.99,,,0.00,Acu-Link.com,2013-10-13 15:29:00,
2013-10-13 10:44:00,78.1,73.5,30.11,North,0,4.3,-999.0,86,-99.99,,,0.00,Acu-Link.com,2013-10-13 15:44:00,
2013-10-13 10:59:00,77.5,72.7,30.10,ESE,112,2.2,-999.0,85,-99.99,,,0.00,Acu-Link.com,2013-10-13 15:59:00,
2013-10-13 11:15:00,77.5,72.3,30.10,NNE,22,5.8,-999.0,84,-99.99,,,0.00,Acu-Link.com,2013-10-13 16:15:00,
2013-10-13 11:30:00,78.8,73.2,30.10,NE,45,3.1,-999.0,83,-99.99,,,0.00,Acu-Link.com,2013-10-13 16:30:00,
2013-10-13 11:45:00,79.7,72.6,30.09,SE,135,6.3,-999.0,79,-99.99,,,0.00,Acu-Link.com,2013-10-13 16:45:00,
2013-10-13 12:00:00,82.2,73.1,30.09,ENE,67,7.4,-999.0,74,-99.99,,,0.00,Acu-Link.com,2013-10-13 17:00:00,
2013-10-13 12:16:00,81.9,72.7,30.09,ENE,67,2.7,-999.0,74,-99.99,,,0.00,Acu-Link.com,2013-10-13 17:16:00,
2013-10-13 12:31:00,82.2,72.7,30.09,East,90,9.8,-999.0,73,-99.99,,,0.00,Acu-Link.com,2013-10-13 17:31:00,
2013-10-13 12:46:00,84.7,73.4,30.09,East,90,9.4,-999.0,69,-99.99,,,0.00,Acu-Link.com,2013-10-13 17:46:00,
2013-10-13 13:02:00,81.7,72.6,30.08,East,90,6.3,-999.0,74,-99.99,,,0.00,Acu-Link.com,2013-10-13 18:02:00,
2013-10-13 13:17:00,83.5,72.6,30.06,East,90,6.3,-999.0,70,-99.99,,,0.00,Acu-Link.com,2013-10-13 18:17:00,
2013-10-13 13:32:00,84.7,73.8,30.06,East,90,7.4,-999.0,70,-99.99,,,0.00,Acu-Link.com,2013-10-13 18:32:00,
2013-10-13 13:47:00,83.7,72.8,30.05,NE,45,3.1,-999.0,70,-99.99,,,0.00,Acu-Link.com,2013-10-13 18:47:00,
2013-10-13 14:02:00,81.9,72.3,30.04,ESE,112,4.7,-999.0,73,-99.99,,,0.00,Acu-Link.com,2013-10-13 19:02:00,
2013-10-13 14:18:00,82.9,72.1,30.03,ENE,67,4.3,-999.0,70,-99.99,,,0.00,Acu-Link.com,2013-10-13 19:18:00,
2013-10-13 14:33:00,83.1,71.9,30.03,ENE,67,6.3,-999.0,69,-99.99,,,0.00,Acu-Link.com,2013-10-13 19:33:00,
2013-10-13 14:48:00,82.4,71.6,30.03,NE,45,4.3,-999.0,70,-99.99,,,0.00,Acu-Link.com,2013-10-13 19:48:00,
2013-10-13 15:03:00,82.8,71.5,30.02,ENE,67,6.3,-999.0,69,-99.99,,,0.00,Acu-Link.com,2013-10-13 20:03:00,
2013-10-13 15:18:00,82.0,71.7,30.03,NNE,22,1.6,-999.0,71,-99.99,,,0.00,Acu-Link.com,2013-10-13 20:18:00,
2013-10-13 15:34:00,83.1,72.3,30.02,NE,45,5.1,-999.0,70,-99.99,,,0.00,Acu-Link.com,2013-10-13 20:34:00,
2013-10-13 15:49:00,82.8,71.1,30.02,NNE,22,5.8,-999.0,68,-99.99,,,0.00,Acu-Link.com,2013-10-13 20:49:00,
2013-10-13 16:04:00,82.4,71.6,30.01,NE,45,4.7,-999.0,70,-99.99,,,0.00,Acu-Link.com,2013-10-13 21:04:00,
2013-10-13 16:20:00,82.0,72.1,30.02,East,90,0.0,-999.0,72,-99.99,,,0.00,Acu-Link.com,2013-10-13 21:20:00,
2013-10-13 16:35:00,82.0,71.7,30.02,East,90,3.1,-999.0,71,-99.99,,,0.00,Acu-Link.com,2013-10-13 21:35:00,
2013-10-13 16:50:00,81.5,72.4,30.02,ESE,112,2.7,-999.0,74,-99.99,,,0.00,Acu-Link.com,2013-10-13 21:50:00,
2013-10-13 17:05:00,81.7,72.2,30.02,East,90,2.2,-999.0,73,-99.99,,,0.00,Acu-Link.com,2013-10-13 22:05:00,
2013-10-13 17:20:00,81.5,72.8,30.01,East,90,2.2,-999.0,75,-99.99,,,0.00,Acu-Link.com,2013-10-13 22:20:00,
2013-10-13 17:35:00,82.0,71.7,30.01,East,90,2.7,-999.0,71,-99.99,,,0.00,Acu-Link.com,2013-10-13 22:35:00,
2013-10-13 17:51:00,81.9,71.5,30.01,East,90,1.1,-999.0,71,-99.99,,,0.00,Acu-Link.com,2013-10-13 22:51:00,
2013-10-13 18:06:00,82.4,72.9,30.02,East,90,1.6,-999.0,73,-99.99,,,0.00,Acu-Link.com,2013-10-13 23:06:00,
2013-10-13 18:21:00,82.8,74.8,30.02,NNW,337,0.0,-999.0,77,-99.99,,,0.00,Acu-Link.com,2013-10-13 23:21:00,
2013-10-13 18:36:00,79.2,73.9,30.02,West,270,0.0,-999.0,84,-99.99,,,0.00,Acu-Link.com,2013-10-13 23:36:00,
2013-10-13 18:52:00,76.8,73.0,30.03,WNW,292,1.6,-999.0,88,-99.99,,,0.00,Acu-Link.com,2013-10-13 23:52:00,
2013-10-13 19:07:00,75.6,73.1,30.03,NW,315,2.7,-999.0,92,-99.99,,,0.00,Acu-Link.com,2013-10-14 00:07:00,
2013-10-13 19:22:00,74.7,72.5,30.04,West,270,2.2,-999.0,93,-99.99,,,0.00,Acu-Link.com,2013-10-14 00:22:00,
2013-10-13 19:38:00,73.9,72.4,30.04,SSW,202,2.7,-999.0,95,-99.99,,,0.00,Acu-Link.com,2013-10-14 00:38:00,
2013-10-13 19:53:00,74.1,73.5,30.05,SSW,202,2.7,-999.0,98,-99.99,,,0.00,Acu-Link.com,2013-10-14 00:53:00,
2013-10-13 20:08:00,74.3,73.4,30.06,SW,225,0.0,-999.0,97,-99.99,,,0.00,Acu-Link.com,2013-10-14 01:08:00,
2013-10-13 20:23:00,73.9,73.3,30.06,NW,315,2.2,-999.0,98,-99.99,,,0.00,Acu-Link.com,2013-10-14 01:23:00,
2013-10-13 20:38:00,73.9,73.3,30.06,NW,315,1.6,-999.0,98,-99.99,,,0.00,Acu-Link.com,2013-10-14 01:38:00,
2013-10-13 20:53:00,74.1,73.8,30.06,East,90,0.0,-999.0,99,-99.99,,,0.00,Acu-Link.com,2013-10-14 01:53:00,
2013-10-13 21:08:00,74.3,73.7,30.06,NE,45,1.1,-999.0,98,-99.99,,,0.00,Acu-Link.com,2013-10-14 02:08:00,
2013-10-13 21:23:00,74.3,73.7,30.07,West,270,1.6,-999.0,98,-99.99,,,0.00,Acu-Link.com,2013-10-14 02:23:00,
2013-10-13 21:39:00,73.9,73.3,30.07,ENE,67,1.6,-999.0,98,-99.99,,,0.00,Acu-Link.com,2013-10-14 02:39:00,
2013-10-13 21:54:00,73.8,73.2,30.07,NW,315,0.0,-999.0,98,-99.99,,,0.00,Acu-Link.com,2013-10-14 02:54:00,
2013-10-13 22:09:00,73.4,73.1,30.07,West,270,0.0,-999.0,99,-99.99,,,0.00,Acu-Link.com,2013-10-14 03:09:00,
2013-10-13 22:24:00,72.7,72.4,30.07,NNW,337,1.1,-999.0,99,-99.99,,,0.00,Acu-Link.com,2013-10-14 03:24:00,
2013-10-13 22:39:00,72.5,72.2,30.07,WNW,292,0.0,-999.0,99,-99.99,,,0.00,Acu-Link.com,2013-10-14 03:39:00,
2013-10-13 22:54:00,72.5,72.2,30.07,WNW,292,1.6,-999.0,99,-99.99,,,0.00,Acu-Link.com,2013-10-14 03:54:00,
2013-10-13 23:09:00,72.3,72.0,30.07,NW,315,2.7,-999.0,99,-99.99,,,0.00,Acu-Link.com,2013-10-14 04:09:00,
2013-10-13 23:25:00,72.5,72.2,30.06,NNE,22,2.2,-999.0,99,-99.99,,,0.00,Acu-Link.com,2013-10-14 04:25:00,
2013-10-13 23:40:00,72.5,72.2,30.06,North,0,0.0,-999.0,99,-99.99,,,0.00,Acu-Link.com,2013-10-14 04:40:00,
2013-10-13 23:55:00,72.3,72.0,30.05,WNW,292,0.0,-999.0,99,-99.99,,,0.00,Acu-Link.com,2013-10-14 04:55:00,